Time;durP1;ratioP1;P1;durP2;ratioP2;P2;SDS_P1;SDS_P2;PMS_P1;PMS_P2;Temp;Humidity;BMP_temperature;BMP_pressure;BME280_temperature;BME280_humidity;BME280_pressure;Samples;Min_cycle;Max_cycle;Signal;HPM_P1;HPM_P2
2022/04/19 00:00:55;;;;;;;0.30;0.20;;;10.70;93.30;;;11.27;nan;100388.56;5004056;28;20633;-69
2022/04/19 00:03:23;;;;;;;0.30;0.20;;;10.70;93.30;;;11.21;nan;100387.28;5006805;28;20672;-70
2022/04/19 00:05:50;;;;;;;2.73;2.53;;;10.70;93.30;;;11.20;nan;100390.00;4999748;28;20649;-69
2022/04/19 00:08:17;;;;;;;0.40;0.40;;;10.70;94.00;;;11.06;nan;100392.84;5009307;28;21269;-69
2022/04/19 00:10:45;;;;;;;0.30;0.30;;;10.50;94.70;;;10.97;nan;100383.13;4994938;28;20635;-69
2022/04/19 00:13:16;;;;;;;0.30;0.30;;;10.50;95.30;;;10.96;nan;100386.69;5009506;28;20641;-70
2022/04/19 00:15:44;;;;;;;0.30;0.30;;;10.40;95.30;;;10.91;nan;100384.44;5002399;28;20666;-70
2022/04/19 00:18:11;;;;;;;0.73;0.73;;;10.30;95.30;;;10.88;nan;100385.47;5008378;28;20633;-70
2022/04/19 00:20:42;;;;;;;0.30;0.30;;;10.30;95.70;;;10.83;nan;100385.03;5012816;28;20629;-69
2022/04/19 00:23:13;;;;;;;0.30;0.20;;;10.30;96.00;;;10.78;nan;100383.69;5008696;28;21201;-68
2022/04/19 00:25:43;;;;;;;0.30;0.30;;;10.30;95.90;;;10.62;nan;100383.22;5005728;28;20644;-71
2022/04/19 00:28:11;;;;;;;0.30;0.20;;;10.10;95.90;;;10.67;nan;100381.06;5010969;28;20629;-69
2022/04/19 00:30:38;;;;;;;0.30;0.30;;;10.10;96.10;;;10.72;nan;100381.56;5005267;28;21025;-68
2022/04/19 00:33:07;;;;;;;0.30;0.30;;;10.20;95.70;;;10.69;nan;100379.22;5025268;28;20635;-69
2022/04/19 00:35:36;;;;;;;0.30;0.20;;;10.10;95.90;;;10.71;nan;100382.53;5004915;28;20673;-69
2022/04/19 00:38:04;;;;;;;0.30;0.20;;;10.20;95.70;;;10.67;nan;100375.84;4989000;28;20634;-65
2022/04/19 00:40:31;;;;;;;0.30;0.30;;;10.10;96.20;;;10.67;nan;100375.84;4996119;28;21214;-68
2022/04/19 00:42:58;;;;;;;0.30;0.20;;;10.10;96.60;;;10.66;nan;100369.00;5000910;28;20983;-67
2022/04/19 00:45:25;;;;;;;0.30;0.20;;;10.10;97.10;;;10.68;nan;100369.69;4990068;28;20622;-68
2022/04/19 00:47:54;;;;;;;0.30;0.30;;;10.10;97.40;;;10.67;nan;100368.88;5007268;28;20646;-69
2022/04/19 00:50:24;;;;;;;0.30;0.20;;;10.10;97.30;;;10.67;nan;100363.66;4991408;28;20699;-69
2022/04/19 00:52:52;;;;;;;0.30;0.20;;;10.10;97.50;;;10.69;nan;100372.19;5005248;28;20633;-69
2022/04/19 00:55:19;;;;;;;0.30;0.30;;;10.10;97.90;;;10.74;nan;100364.84;5020839;23;20736;-68
2022/04/19 00:57:46;;;;;;;0.30;0.20;;;10.10;98.00;;;10.70;nan;100366.03;4947414;28;20632;-67
2022/04/19 01:00:15;;;;;;;0.30;0.20;;;10.10;98.20;;;10.73;nan;100368.38;4965595;28;20639;-68
2022/04/19 01:02:42;;;;;;;0.30;0.27;;;10.10;98.20;;;10.57;nan;100357.47;4953428;28;20655;-66
2022/04/19 01:05:10;;;;;;;0.30;0.30;;;10.00;98.10;;;10.45;nan;100361.03;4968386;28;20770;-66
2022/04/19 01:07:39;;;;;;;0.30;0.20;;;10.00;98.70;;;10.40;nan;100360.53;4944563;28;20643;-67
2022/04/19 01:10:07;;;;;;;0.30;0.20;;;9.90;99.20;;;10.40;nan;100357.09;4970444;28;20653;-67
2022/04/19 01:15:20;;;;;;;0.30;0.20;;;9.90;99.00;;;10.31;nan;100353.38;4976988;28;20674;-66
2022/04/19 01:17:48;;;;;;;0.30;0.30;;;9.90;99.10;;;10.32;nan;100351.63;4943873;28;20632;-66
2022/04/19 01:20:15;;;;;;;0.30;0.27;;;9.80;99.50;;;10.25;nan;100348.63;4973045;28;20646;-67
2022/04/19 01:22:43;;;;;;;0.30;0.30;;;9.70;99.80;;;10.31;nan;100340.34;4969893;28;20984;-66
2022/04/19 01:25:11;;;;;;;0.30;0.20;;;9.80;99.90;;;10.29;nan;100347.47;4969906;28;20666;-67
2022/04/19 01:27:39;;;;;;;0.30;0.20;;;9.80;99.90;;;10.28;nan;100342.38;4966381;28;21181;-67
2022/04/19 01:30:08;;;;;;;0.30;0.30;;;9.70;99.90;;;10.26;nan;100347.72;4948945;28;20640;-67
2022/04/19 01:32:36;;;;;;;0.30;0.30;;;9.70;99.90;;;10.26;nan;100342.50;4953498;28;20654;-66
2022/04/19 01:35:15;;;;;;;0.30;0.23;;;9.70;99.90;;;10.25;nan;100343.44;4974509;28;21014;-68
2022/04/19 01:37:46;;;;;;;0.30;0.30;;;9.80;99.90;;;10.26;nan;100347.72;4933083;28;20640;-67
2022/04/19 01:40:17;;;;;;;0.30;0.30;;;9.70;99.90;;;10.16;nan;100338.88;4965719;28;20620;-67
2022/04/19 01:42:58;;;;;;;0.30;0.30;;;9.70;99.90;;;10.20;nan;100348.13;4951514;28;21010;-67
2022/04/19 01:45:30;;;;;;;0.30;0.30;;;9.70;99.90;;;10.17;nan;100340.56;4959207;28;20662;-67
2022/04/19 01:47:59;;;;;;;0.30;0.20;;;9.70;99.90;;;10.13;nan;100336.53;4972686;28;20666;-66
2022/04/19 01:50:28;;;;;;;0.30;0.27;;;9.60;99.90;;;10.01;nan;100346.03;4955602;28;20675;-66
2022/04/19 01:52:57;;;;;;;0.30;0.20;;;9.50;99.90;;;9.95;nan;100336.06;4969717;28;20647;-65
2022/04/19 01:55:24;;;;;;;0.30;0.20;;;9.40;99.90;;;9.90;nan;100342.59;4962396;28;130001;-67
2022/04/19 01:57:57;;;;;;;0.30;0.30;;;9.40;99.90;;;9.89;nan;100339.16;4970127;28;20643;-66
2022/04/19 02:00:29;;;;;;;0.30;0.20;;;9.40;99.90;;;9.86;nan;100336.75;4966276;28;20666;-66
2022/04/19 02:02:57;;;;;;;0.30;0.20;;;9.40;99.90;;;9.88;nan;100334.06;4955924;28;21020;-67
2022/04/19 02:05:25;;;;;;;0.30;0.30;;;9.40;99.90;;;9.87;nan;100334.97;4982244;28;20712;-66
2022/04/19 02:07:52;;;;;;;0.30;0.20;;;9.40;99.90;;;9.84;nan;100337.81;4973375;28;20614;-66
2022/04/19 02:10:20;;;;;;;0.30;0.20;;;9.40;99.90;;;9.72;nan;100339.53;4974975;28;20639;-66
2022/04/19 02:12:47;;;;;;;0.30;0.20;;;9.20;99.90;;;9.67;nan;100340.84;4956495;28;20631;-66
2022/04/19 02:15:17;;;;;;;0.30;0.27;;;9.20;99.90;;;9.59;nan;100335.31;4981322;28;20670;-68
2022/04/19 02:17:49;;;;;;;0.30;0.20;;;9.10;99.90;;;9.51;nan;100327.25;4993409;28;20994;-68
2022/04/19 02:20:19;;;;;;;0.30;0.20;;;9.00;99.90;;;9.51;nan;100327.25;4962253;28;20643;-67
2022/04/19 02:22:47;;;;;;;0.30;0.30;;;9.00;99.90;;;9.53;nan;100330.56;4968318;28;20623;-67
2022/04/19 02:25:16;;;;;;;0.30;0.20;;;9.00;99.90;;;9.54;nan;100314.81;4972387;28;20663;-66
2022/04/19 02:27:44;;;;;;;0.30;0.30;;;9.00;99.90;;;9.54;nan;100319.22;4973780;28;20599;-67
2022/04/19 02:30:16;;;;;;;0.30;0.20;;;9.00;99.90;;;9.53;nan;100320.16;4956017;28;20639;-67
2022/04/19 02:32:49;;;;;;;0.30;0.27;;;9.00;99.90;;;9.42;nan;100320.09;4966645;28;20633;-67
2022/04/19 02:35:20;;;;;;;0.30;0.20;;;8.90;99.90;;;9.43;nan;100320.00;4981870;28;20777;-66
2022/04/19 02:37:59;;;;;;;0.30;0.30;;;8.90;99.90;;;9.38;nan;100315.13;4973730;28;20627;-65
2022/04/19 02:40:27;;;;;;;0.30;0.20;;;8.80;99.90;;;9.36;nan;100319.59;4979697;28;21271;-69
2022/04/19 02:42:55;;;;;;;0.30;0.30;;;8.80;99.90;;;9.35;nan;100315.31;4973951;28;20627;-66
2022/04/19 02:45:23;;;;;;;0.30;0.30;;;8.80;99.90;;;9.35;nan;100310.13;4955920;28;21235;-67
2022/04/19 02:48:21;;;;;;;0.30;0.20;;;8.80;99.90;;;9.37;nan;100323.84;4941179;28;20627;-67
2022/04/19 02:50:49;;;;;;;0.30;0.20;;;8.80;99.90;;;9.29;nan;100320.13;4946871;28;20644;-67
2022/04/19 02:53:16;;;;;;;0.30;0.30;;;8.80;99.90;;;9.25;nan;100313.50;4973643;28;20623;-67
2022/04/19 02:55:43;;;;;;;0.30;0.27;;;8.80;99.90;;;9.31;nan;100313.88;4970763;28;21118;-67
2022/04/19 02:58:11;;;;;;;0.30;0.20;;;8.80;99.90;;;9.27;nan;100311.59;4954417;28;20643;-66
2022/04/19 03:00:38;;;;;;;0.93;0.93;;;8.80;99.90;;;9.29;nan;100310.56;4965005;28;20643;-66
2022/04/19 03:03:08;;;;;;;2.30;2.10;;;8.80;99.90;;;9.25;nan;100314.31;4953710;28;20639;-67
2022/04/19 03:05:40;;;;;;;0.30;0.20;;;8.80;99.90;;;9.25;nan;100308.28;4974139;28;20669;-67
2022/04/19 03:08:08;;;;;;;0.30;0.20;;;8.80;99.90;;;9.23;nan;100310.16;4972966;28;20643;-68
2022/04/19 03:10:35;;;;;;;0.30;0.20;;;8.80;99.90;;;9.22;nan;100314.53;4955067;28;20642;-67
2022/04/19 03:13:02;;;;;;;0.30;0.30;;;8.80;99.90;;;9.17;nan;100310.59;4972477;28;20639;-66
2022/04/19 03:15:29;;;;;;;0.30;0.20;;;8.70;99.90;;;9.05;nan;100309.69;4976710;28;20666;-67
2022/04/19 03:17:56;;;;;;;0.30;0.20;;;8.60;99.90;;;9.05;nan;100309.69;4972621;28;20626;-68
2022/04/19 03:20:23;;;;;;;0.30;0.30;;;8.60;99.90;;;9.06;nan;100307.91;4957242;28;20650;-67
2022/04/19 03:28:21;;;;;;;0.30;0.20;;;8.60;99.90;;;8.99;nan;100307.53;4931075;28;21209;-67
2022/04/19 03:30:48;;;;;;;0.30;0.20;;;8.50;99.90;;;8.99;nan;100304.91;4939350;28;20639;-67
2022/04/19 03:33:18;;;;;;;0.30;0.20;;;8.60;99.90;;;8.94;nan;100307.03;4959031;28;20628;-67
2022/04/19 03:35:45;;;;;;;0.30;0.20;;;8.50;99.90;;;8.94;nan;100307.03;4946263;28;21240;-66
2022/04/19 03:38:12;;;;;;;0.30;0.20;;;8.50;99.90;;;8.90;nan;100297.75;4973180;28;20622;-66
2022/04/19 03:40:39;;;;;;;0.30;0.30;;;8.50;99.90;;;8.92;nan;100300.28;4982104;28;20662;-67
2022/04/19 03:43:07;;;;;;;0.30;0.20;;;8.40;99.90;;;8.98;nan;100294.63;4972214;28;20611;-66
2022/04/19 03:45:34;;;;;;;0.30;0.30;;;8.50;99.90;;;9.00;nan;100303.16;4940719;28;20660;-66
2022/04/19 03:48:02;;;;;;;0.30;0.20;;;8.50;99.90;;;9.01;nan;100302.19;4972813;28;21182;-66
2022/04/19 03:50:29;;;;;;;0.30;0.30;;;8.50;99.90;;;9.04;nan;100300.22;4939666;28;20638;-66
2022/04/19 03:52:56;;;;;;;0.30;0.20;;;8.60;99.90;;;9.03;nan;100297.75;4955109;28;20646;-66
2022/04/19 03:55:23;;;;;;;0.30;0.30;;;8.50;99.90;;;9.05;nan;100303.69;4954785;28;20666;-67
2022/04/19 03:57:50;;;;;;;0.30;0.20;;;8.60;99.90;;;8.97;nan;100306.81;4955246;28;20694;-67
2022/04/19 04:00:21;;;;;;;0.30;0.30;;;8.50;99.90;;;8.97;nan;100306.81;4968041;28;20698;-67
2022/04/19 04:02:48;;;;;;;1.73;1.63;;;8.50;99.90;;;8.93;nan;100307.13;4964127;28;20650;-66
2022/04/19 04:05:15;;;;;;;0.20;0.20;;;8.40;99.90;;;8.94;nan;100309.63;4971658;28;20645;-68
2022/04/19 04:07:42;;;;;;;0.20;0.20;;;8.40;99.90;;;8.93;nan;100310.56;4955017;28;20690;-67
2022/04/19 04:10:10;;;;;;;0.20;0.20;;;8.40;99.90;;;8.86;nan;100304.13;4972171;28;20651;-67
2022/04/19 04:12:37;;;;;;;1.73;1.63;;;8.40;99.90;;;8.91;nan;100309.00;4972596;28;20637;-66
2022/04/19 04:15:05;;;;;;;0.20;0.20;;;8.40;99.90;;;8.83;nan;100306.94;4982457;28;20666;-67
2022/04/19 04:17:32;;;;;;;0.30;0.30;;;8.40;99.90;;;8.86;nan;100305.91;4976423;28;20667;-66
2022/04/19 04:19:59;;;;;;;0.30;0.20;;;8.40;99.90;;;8.85;nan;100312.88;4972044;28;20648;-68
2022/04/19 04:22:27;;;;;;;0.30;0.30;;;8.40;99.90;;;8.80;nan;100314.94;4940164;28;20624;-67
2022/04/19 04:24:54;;;;;;;0.40;0.40;;;8.40;99.90;;;8.77;nan;100314.34;4983084;28;20662;-66
2022/04/19 04:27:21;;;;;;;0.23;0.20;;;8.30;99.90;;;8.70;nan;100307.91;4955953;28;21031;-67
2022/04/19 04:29:49;;;;;;;0.20;0.20;;;8.30;99.90;;;8.80;nan;100307.16;4956364;28;20631;-67
2022/04/19 04:32:16;;;;;;;0.30;0.30;;;8.40;99.90;;;8.69;nan;100306.25;4954693;28;20640;-66
2022/04/19 04:34:43;;;;;;;0.43;0.43;;;8.20;99.90;;;8.73;nan;100305.09;4979646;28;21084;-66
2022/04/19 04:37:10;;;;;;;0.30;0.20;;;8.30;99.90;;;8.62;nan;100310.19;4962756;28;20683;-66
2022/04/19 04:39:37;;;;;;;0.20;0.20;;;8.30;99.90;;;8.60;nan;100310.31;4977873;28;20641;-68
2022/04/19 04:42:04;;;;;;;0.30;0.30;;;8.20;99.90;;;8.58;nan;100317.38;4974851;28;20639;-67
2022/04/19 04:44:32;;;;;;;0.30;0.30;;;8.20;99.90;;;8.59;nan;100313.84;4971042;28;20643;-68
2022/04/19 04:49:44;;;;;;;0.20;0.20;;;8.20;99.90;;;8.61;nan;100317.16;4957598;28;20631;-68
2022/04/19 04:52:14;;;;;;;0.30;0.20;;;8.20;99.90;;;8.64;nan;100318.72;4976994;28;20658;-67
2022/04/19 04:54:43;;;;;;;0.20;0.20;;;8.20;99.90;;;8.74;nan;100307.59;4953356;28;21250;-67
2022/04/19 04:57:10;;;;;;;0.30;0.30;;;8.30;99.90;;;8.94;nan;100320.03;4970379;28;20670;-67
2022/04/19 04:59:37;;;;;;;0.20;0.20;;;8.50;99.90;;;9.12;nan;100316.13;4976943;28;20636;-66
2022/04/19 05:02:05;;;;;;;0.30;0.30;;;8.80;99.90;;;9.06;nan;100313.13;4953483;28;20643;-67
2022/04/19 05:04:33;;;;;;;0.20;0.20;;;8.70;99.90;;;9.31;nan;100318.25;4979846;28;20666;-66
2022/04/19 05:07:01;;;;;;;0.20;0.20;;;8.90;99.90;;;9.52;nan;100314.09;4971302;28;20635;-67
2022/04/19 05:09:28;;;;;;;0.20;0.20;;;9.10;99.90;;;9.76;nan;100319.31;4972039;28;20646;-67
2022/04/19 05:11:55;;;;;;;0.23;0.23;;;9.40;99.90;;;10.05;nan;100318.00;4970130;28;20644;-66
2022/04/19 05:14:23;;;;;;;0.20;0.20;;;9.80;99.90;;;10.27;nan;100328.50;4953689;28;20670;-67
2022/04/19 05:16:50;;;;;;;0.30;0.30;;;10.10;99.50;;;10.66;nan;100330.69;4930091;28;20658;-67
2022/04/19 05:19:17;;;;;;;0.30;0.30;;;10.50;98.60;;;10.96;nan;100324.03;4958214;28;20666;-66
2022/04/19 05:21:45;;;;;;;0.30;0.20;;;10.80;97.40;;;11.09;nan;100329.97;4950467;28;20699;-66
2022/04/19 05:24:13;;;;;;;0.30;0.30;;;11.10;96.50;;;11.18;nan;100324.81;4974974;28;20674;-67
2022/04/19 05:26:40;;;;;;;0.30;0.20;;;11.20;96.00;;;11.22;nan;100325.44;4959339;28;20627;-67
2022/04/19 05:29:08;;;;;;;0.30;0.30;;;11.30;95.20;;;11.54;nan;100327.09;4956260;28;20643;-66
2022/04/19 05:31:35;;;;;;;0.30;0.20;;;11.60;94.60;;;11.87;nan;100333.19;4979221;28;20639;-66
2022/04/19 05:34:02;;;;;;;0.30;0.20;;;12.00;93.50;;;12.14;nan;100334.38;4961098;28;20669;-66
2022/04/19 05:36:29;;;;;;;0.30;0.30;;;12.40;92.70;;;12.46;nan;100342.97;4957150;28;20671;-65
2022/04/19 05:38:57;;;;;;;0.30;0.30;;;12.90;91.40;;;12.77;nan;100340.38;4975254;28;20631;-67
2022/04/19 05:41:24;;;;;;;0.30;0.20;;;13.30;90.10;;;13.14;nan;100341.50;4975137;28;20635;-66
2022/04/19 05:43:51;;;;;;;0.30;0.30;;;13.70;87.40;;;13.60;nan;100340.94;4981547;28;20654;-66
2022/04/19 05:46:20;;;;;;;0.30;0.20;;;14.20;84.80;;;14.04;nan;100345.63;4956964;28;20635;-66
2022/04/19 05:48:48;;;;;;;0.30;0.20;;;14.80;82.00;;;14.53;nan;100349.88;4975823;28;20635;-66
2022/04/19 05:51:15;;;;;;;0.63;0.63;;;15.50;78.00;;;15.07;nan;100347.31;4957057;28;20646;-67
2022/04/19 05:53:42;;;;;;;0.30;0.30;;;16.20;74.30;;;15.60;nan;100346.63;4989640;28;20954;-65
2022/04/19 05:56:09;;;;;;;0.30;0.30;;;16.90;70.50;;;16.10;nan;100358.25;4942331;28;20639;-67
2022/04/19 05:58:37;;;;;;;0.30;0.30;;;17.60;67.40;;;16.25;nan;100356.75;4949193;28;20639;-67
2022/04/19 06:01:04;;;;;;;0.30;0.30;;;17.80;64.70;;;16.65;nan;100364.94;4959539;28;21189;-67
2022/04/19 06:06:16;;;;;;;0.50;0.50;;;18.90;61.30;;;17.74;nan;100354.38;4950956;28;25005;-67
2022/04/19 06:08:43;;;;;;;0.30;0.30;;;19.70;58.70;;;18.18;nan;100362.84;4957624;28;20208;-67
2022/04/19 06:11:12;;;;;;;0.30;0.30;;;20.10;57.40;;;18.34;nan;100354.88;4962633;28;20650;-66
2022/04/19 06:13:40;;;;;;;0.40;0.40;;;20.10;56.10;;;18.82;nan;100361.13;4957715;28;20650;-66
2022/04/19 06:16:09;;;;;;;0.93;0.93;;;20.50;55.20;;;19.52;nan;100348.78;4941162;28;20635;-67
2022/04/19 06:18:36;;;;;;;0.30;0.30;;;21.60;53.20;;;20.23;nan;100364.34;4947572;28;21018;-67
2022/04/19 06:21:05;;;;;;;0.30;0.30;;;22.60;50.90;;;20.23;nan;100364.34;4973279;28;20648;-68
2022/04/19 06:23:33;;;;;;;0.30;0.30;;;23.40;48.70;;;21.38;nan;100360.09;4974020;28;20670;-67
2022/04/19 06:26:00;;;;;;;0.30;0.30;;;23.80;47.50;;;21.72;nan;100358.66;4957615;28;20659;-67
2022/04/19 06:28:28;;;;;;;0.30;0.30;;;24.10;46.40;;;22.28;nan;100361.25;4957583;28;20649;-65
2022/04/19 06:30:55;;;;;;;0.30;0.30;;;24.60;45.30;;;22.83;nan;100357.00;4979382;28;21235;-67
2022/04/19 06:33:22;;;;;;;0.30;0.30;;;25.20;44.40;;;23.36;nan;100352.78;4972898;28;20635;-67
2022/04/19 06:35:49;;;;;;;0.30;0.30;;;25.90;43.20;;;23.92;nan;100351.47;4973189;28;20690;-67
2022/04/19 06:38:16;;;;;;;0.30;0.30;;;26.40;42.50;;;24.77;nan;100350.69;4956314;28;20671;-67
2022/04/19 06:40:43;;;;;;;0.30;0.30;;;27.60;41.30;;;25.67;nan;100356.69;4974358;28;20631;-67
2022/04/19 06:43:10;;;;;;;0.40;0.40;;;28.70;40.10;;;26.48;nan;100364.75;4972362;28;20634;-67
2022/04/19 06:45:38;;;;;;;0.30;0.30;;;29.70;38.80;;;27.08;nan;100365.81;4971242;28;21071;-67
2022/04/19 06:48:05;;;;;;;0.40;0.30;;;30.40;37.70;;;27.58;nan;100365.41;4979084;28;20634;-67
2022/04/19 06:50:32;;;;;;;0.40;0.30;;;31.00;37.00;;;28.21;nan;100359.56;4980405;28;20635;-67
2022/04/19 06:52:59;;;;;;;0.40;0.30;;;31.50;36.60;;;28.19;nan;100361.66;4973567;28;20641;-67
2022/04/19 06:55:27;;;;;;;0.67;0.67;;;32.00;35.60;;;29.15;nan;100362.81;5014140;22;20697;-71
2022/04/19 06:57:54;;;;;;;4.33;2.77;;;32.70;35.10;;;29.59;nan;100371.19;5030171;28;20675;-71
2022/04/19 07:00:21;;;;;;;0.40;0.40;;;33.30;34.50;;;29.85;nan;100370.66;5021822;28;20716;-71
2022/04/19 07:02:48;;;;;;;0.40;0.30;;;33.60;34.00;;;29.43;nan;100366.59;5018673;28;20660;-70
2022/04/19 07:05:16;;;;;;;0.40;0.30;;;33.80;33.50;;;30.28;nan;100357.41;5010111;28;20668;-69
2022/04/19 07:07:43;;;;;;;0.40;0.30;;;33.80;33.60;;;30.08;nan;100367.00;4996775;28;20625;-71
2022/04/19 07:10:11;;;;;;;1.57;1.47;;;33.90;33.60;;;30.56;nan;100360.00;4992208;28;21043;-72
2022/04/19 07:12:44;;;;;;;0.40;0.30;;;34.00;33.50;;;30.77;nan;100357.59;4995179;28;20726;-72
2022/04/19 07:15:11;;;;;;;0.40;0.40;;;34.10;33.30;;;30.83;nan;100348.53;5001476;28;20666;-69
2022/04/19 07:17:40;;;;;;;0.40;0.40;;;34.10;33.30;;;30.75;nan;100357.84;5026353;28;20726;-68
2022/04/19 07:28:25;;;;;;;0.40;0.30;;;33.90;33.20;;;29.90;nan;100352.72;5024782;28;21035;-72
2022/04/19 07:30:52;;;;;;;0.37;0.30;;;32.70;33.30;;;29.37;nan;100352.22;5004511;28;20648;-69
2022/04/19 07:33:19;;;;;;;0.40;0.40;;;32.00;33.50;;;29.83;nan;100353.94;5013027;28;21201;-69
2022/04/19 07:35:46;;;;;;;0.60;0.60;;;31.60;33.90;;;30.15;nan;100354.22;5021249;28;20662;-69
2022/04/19 07:38:13;;;;;;;0.40;0.30;;;31.60;34.00;;;30.14;nan;100345.31;5009108;28;20669;-69
2022/04/19 07:40:40;;;;;;;2.87;2.50;;;31.70;33.70;;;29.90;nan;100343.81;4991556;28;20639;-70
2022/04/19 07:43:07;;;;;;;0.30;0.30;;;31.50;33.90;;;28.79;nan;100346.97;5006819;28;20641;-66
2022/04/19 07:45:34;;;;;;;0.30;0.30;;;31.10;34.60;;;29.34;nan;100349.22;5002098;28;20695;-67
2022/04/19 07:48:04;;;;;;;0.30;0.30;;;30.70;34.80;;;29.51;nan;100344.72;4990657;28;21155;-67
2022/04/19 07:50:31;;;;;;;0.50;0.50;;;30.50;34.70;;;29.27;nan;100345.84;4996038;28;20672;-67
2022/04/19 07:52:58;;;;;;;0.40;0.40;;;30.30;35.00;;;29.13;nan;100347.97;5009346;28;20638;-67
2022/04/19 07:55:25;;;;;;;0.40;0.30;;;29.80;35.30;;;29.00;nan;100346.38;5013760;28;21224;-66
2022/04/19 07:57:52;;;;;;;0.30;0.30;;;29.80;35.10;;;29.25;nan;100346.09;5008329;28;20689;-68
2022/04/19 08:00:21;;;;;;;0.40;0.40;;;29.90;35.00;;;29.43;nan;100353.16;4996118;28;21259;-69
2022/04/19 08:02:48;;;;;;;1.03;0.97;;;30.00;34.90;;;29.94;nan;100352.25;5002655;28;20642;-69
2022/04/19 08:05:15;;;;;;;0.30;0.30;;;30.50;34.70;;;30.07;nan;100346.53;4989966;28;20720;-69
2022/04/19 08:07:42;;;;;;;0.30;0.30;;;30.80;34.20;;;28.71;nan;100344.66;5008632;28;20637;-69
2022/04/19 08:10:10;;;;;;;0.30;0.30;;;30.60;34.10;;;28.71;nan;100344.66;4996670;28;20637;-71
2022/04/19 08:12:37;;;;;;;0.43;0.43;;;30.30;34.50;;;30.08;nan;100340.91;4996720;28;21021;-70
2022/04/19 08:15:04;;;;;;;0.30;0.30;;;30.70;34.00;;;30.47;nan;100344.53;5007252;28;21234;-69
2022/04/19 08:17:36;;;;;;;0.70;0.70;;;31.20;33.80;;;30.73;nan;100333.03;5010420;28;20662;-70
2022/04/19 08:20:05;;;;;;;0.40;0.30;;;31.60;33.50;;;31.11;nan;100345.69;5002755;28;20626;-69
2022/04/19 08:22:32;;;;;;;0.73;0.73;;;32.10;33.50;;;31.12;nan;100348.13;5010495;28;21174;-69
2022/04/19 08:25:03;;;;;;;0.40;0.40;;;32.40;33.30;;;30.78;nan;100346.56;4998647;28;20661;-69
2022/04/19 08:27:30;;;;;;;0.40;0.40;;;32.70;32.60;;;31.72;nan;100342.59;4997365;28;20641;-71
2022/04/19 08:29:57;;;;;;;0.33;0.33;;;32.90;32.90;;;31.63;nan;100344.13;5005742;28;20642;-70
2022/04/19 08:32:24;;;;;;;0.40;0.40;;;33.20;32.70;;;31.61;nan;100340.88;5017079;28;20648;-67
2022/04/19 08:34:51;;;;;;;0.30;0.30;;;33.20;32.20;;;31.69;nan;100337.72;4989609;28;20673;-70
2022/04/19 08:37:20;;;;;;;1.33;1.23;;;33.40;31.60;;;32.30;nan;100327.47;5001310;28;20662;-72
2022/04/19 08:39:47;;;;;;;0.40;0.40;;;34.10;31.80;;;33.14;nan;100339.84;4990011;28;20633;-70
2022/04/19 08:42:14;;;;;;;0.40;0.40;;;34.90;31.50;;;33.86;nan;100342.47;5005350;28;20634;-70
2022/04/19 08:44:41;;;;;;;0.70;0.70;;;35.70;31.20;;;34.45;nan;100329.19;4989384;28;20654;-67
2022/04/19 08:47:08;;;;;;;0.40;0.40;;;36.50;31.10;;;35.21;nan;100337.09;5002720;28;20637;-67
2022/04/19 08:49:41;;;;;;;0.40;0.40;;;37.40;31.00;;;35.51;nan;100334.25;4997884;28;20708;-67
2022/04/19 08:52:14;;;;;;;0.40;0.40;;;38.00;30.40;;;35.25;nan;100338.16;4990397;28;20635;-69
2022/04/19 08:57:30;;;;;;;0.40;0.40;;;39.20;30.00;;;36.77;nan;100333.16;4998982;28;20979;-67
2022/04/19 09:00:02;;;;;;;0.40;0.40;;;40.10;29.90;;;36.81;nan;100326.03;4994989;28;20626;-68
2022/04/19 09:02:32;;;;;;;0.40;0.40;;;40.40;29.70;;;37.57;nan;100336.78;4995430;28;20630;-68
2022/04/19 09:05:19;;;;;;;0.40;0.40;;;41.40;29.20;;;38.15;nan;100327.13;4996142;28;20664;-67
2022/04/19 09:07:52;;;;;;;0.40;0.40;;;41.40;29.00;;;38.95;nan;100335.72;5006796;28;20633;-70
2022/04/19 09:10:31;;;;;;;0.40;0.40;;;42.10;28.80;;;38.46;nan;100335.59;5005399;28;20642;-64
2022/04/19 09:13:06;;;;;;;0.40;0.40;;;42.20;28.70;;;39.23;nan;100331.84;5005117;28;20641;-69
2022/04/19 09:15:38;;;;;;;0.50;0.50;;;42.60;28.40;;;40.02;nan;100332.19;4999077;28;20665;-68
2022/04/19 09:18:29;;;;;;;0.40;0.40;;;43.50;28.40;;;39.60;nan;100327.22;4989409;28;20662;-70
2022/04/19 09:20:58;;;;;;;2.40;2.30;;;43.40;28.40;;;39.43;nan;100317.75;4994924;28;20623;-68
2022/04/19 09:23:26;;;;;;;0.50;0.50;;;43.60;28.00;;;39.48;nan;100317.66;4997102;28;20642;-68
2022/04/19 09:25:59;;;;;;;0.60;0.60;;;43.40;28.30;;;40.17;nan;100309.94;5007509;28;21067;-67
2022/04/19 09:28:28;;;;;;;0.40;0.40;;;43.80;28.10;;;40.79;nan;100303.31;5017748;28;20662;-67
2022/04/19 09:30:59;;;;;;;0.40;0.40;;;44.50;28.00;;;39.65;nan;100297.06;5009101;28;20644;-67
2022/04/19 09:33:28;;;;;;;0.40;0.40;;;44.70;27.70;;;40.00;nan;100296.19;4997787;28;20634;-66
2022/04/19 09:36:02;;;;;;;0.40;0.40;;;44.20;27.80;;;39.60;nan;100287.06;4989050;28;21150;-67
2022/04/19 09:38:49;;;;;;;0.50;0.50;;;44.10;27.80;;;40.24;nan;100286.53;4989762;28;20688;-69
2022/04/19 09:41:29;;;;;;;0.60;0.60;;;44.00;27.50;;;40.51;nan;100293.72;5006128;28;20648;-67
2022/04/19 09:44:06;;;;;;;0.40;0.40;;;44.00;27.40;;;41.51;nan;100291.84;5003928;28;20645;-67
2022/04/19 09:46:34;;;;;;;0.50;0.50;;;45.10;27.30;;;41.99;nan;100295.19;4989717;28;21040;-68
2022/04/19 09:49:01;;;;;;;0.40;0.40;;;45.80;27.30;;;42.27;nan;100288.19;4988022;28;20645;-67
2022/04/19 09:51:32;;;;;;;0.50;0.50;;;46.40;27.10;;;41.19;nan;100279.41;4991843;28;20641;-67
2022/04/19 09:53:59;;;;;;;0.50;0.50;;;45.80;26.90;;;41.73;nan;100280.72;4996984;28;20641;-67
2022/04/19 09:56:36;;;;;;;0.70;0.70;;;45.50;27.10;;;42.13;nan;100268.38;5005281;28;20681;-67
2022/04/19 09:59:20;;;;;;;0.50;0.50;;;45.90;27.20;;;42.19;nan;100263.53;5021663;28;20733;-68
2022/04/19 10:10:07;;;;;;;0.50;0.50;;;44.90;26.80;;;41.18;nan;100255.91;4991262;28;20669;-67
2022/04/19 10:12:36;;;;;;;0.50;0.50;;;45.10;26.60;;;40.66;100.00;100265.13;4995006;28;21245;-67
2022/04/19 10:15:06;;;;;;;0.47;0.47;;;44.50;26.90;;;-141.50;100.00;62695.63;5007034;28;20661;-69
2022/04/19 10:17:36;;;;;;;0.50;0.50;;;44.50;27.00;;;-141.50;100.00;62695.63;5012616;28;20659;-68
2022/04/19 10:20:05;;;;;;;0.40;0.40;;;44.30;26.90;;;-141.50;100.00;62695.63;5001269;28;21277;-67
2022/04/19 10:22:33;;;;;;;0.40;0.40;;;43.70;27.20;;;-141.50;100.00;62695.63;4996962;28;20729;-67
2022/04/19 10:25:02;;;;;;;0.50;0.50;;;42.30;27.50;;;-141.50;100.00;62695.63;4993794;28;20633;-67
2022/04/19 10:27:37;;;;;;;1.80;1.70;;;41.30;27.50;;;-141.50;100.00;62695.63;5002915;28;20636;-68
2022/04/19 10:30:06;;;;;;;0.40;0.40;;;38.40;27.40;;;-141.50;100.00;62695.63;5025410;28;20628;-67
2022/04/19 10:32:33;;;;;;;0.40;0.40;;;35.80;27.60;;;-141.50;100.00;62695.63;5014662;28;20644;-67
2022/04/19 10:35:05;;;;;;;0.40;0.40;;;34.20;29.20;;;-141.50;100.00;62695.63;5009087;28;21305;-67
2022/04/19 10:37:33;;;;;;;0.40;0.30;;;31.90;30.40;;;-141.50;100.00;62695.63;5013992;28;20622;-67
2022/04/19 10:40:02;;;;;;;0.40;0.30;;;29.80;32.10;;;-141.50;100.00;62695.63;4996619;28;21098;-67
2022/04/19 10:42:40;;;;;;;0.60;0.57;;;27.90;33.60;;;-141.50;100.00;62695.63;5007437;28;20635;-67
2022/04/19 10:45:13;;;;;;;0.40;0.40;;;27.00;34.60;;;-141.50;100.00;62695.63;4995480;28;20753;-66
2022/04/19 10:47:55;;;;;;;0.40;0.30;;;26.00;34.90;;;-141.50;100.00;62695.63;5011489;28;20640;-69
2022/04/19 10:50:30;;;;;;;0.40;0.30;;;25.20;36.50;;;-141.50;100.00;62695.63;4999104;28;20629;-67
2022/04/19 10:53:03;;;;;;;0.40;0.30;;;24.30;37.10;;;-141.50;100.00;62695.63;5000213;28;20665;-68
2022/04/19 10:55:33;;;;;;;0.40;0.30;;;23.90;38.00;;;-141.50;100.00;62695.63;5023632;28;20664;-69
2022/04/19 10:58:18;;;;;;;0.40;0.30;;;23.50;38.10;;;-141.50;100.00;62695.63;5014296;28;20772;-69
2022/04/19 11:00:54;;;;;;;0.40;0.37;;;23.20;37.40;;;-141.50;100.00;62695.63;5002729;28;20634;-71
2022/04/19 11:03:34;;;;;;;0.40;0.30;;;23.10;37.60;;;-141.50;100.00;62695.63;5008700;28;20636;-70
2022/04/19 11:06:04;;;;;;;0.40;0.30;;;22.80;38.10;;;-141.50;100.00;62695.63;5017569;28;21491;-69
2022/04/19 11:08:36;;;;;;;0.40;0.40;;;22.40;38.20;;;-141.50;100.00;62695.63;4995010;28;20642;-70